Flight Track Log - Related Links

Times and Time Zones

All times are in EDT time to prevent confusion due to time zone crossing. See the TAM8014 flight status page for this flight to view local times or setup timezone preferences in your user account.


Time Position Orientation Groundspeed Altitude Reporting Facility
EDT Latitude Longitude Course Direction KTS MPH feet Rate Location/Type
Thu 06:28:33 AM -23.4240 -46.4410 73° East 166 191 3,300  Level FlightAware ADS-B
Thu 06:29:13 AM -23.4270 -46.4120 96° East 170 196 4,400 1,800 Climbing FlightAware ADS-B
Thu 06:29:23 AM -23.4370 -46.4090 165° South 171 197 4,800 2,000 Climbing FlightAware ADS-B
Thu 06:29:43 AM -23.4510 -46.4150 201° Southwest 174 200 5,400 1,714 Climbing FlightAware ADS-B
Thu 06:29:58 AM -23.4620 -46.4240 217° Southwest 189 217 5,800 1,200 Climbing FlightAware ADS-B
Thu 06:30:28 AM -23.4820 -46.4520 232° Southwest 232 267 6,300 1,091 Climbing FlightAware ADS-B
Thu 06:30:53 AM -23.4980 -46.4770 235° Southwest 268 308 6,800 1,600 Climbing FlightAware ADS-B
Thu 06:31:13 AM -23.5100 -46.4930 231° Southwest 274 315 7,500 3,086 Climbing FlightAware ADS-B
Thu 06:31:28 AM -23.5250 -46.5140 232° Southwest 274 315 8,600 3,300 Climbing FlightAware ADS-B
Thu 06:32:13 AM -23.5580 -46.5590 231° Southwest 271 312 10,800 2,267 Climbing FlightAware ADS-B
Thu 06:32:58 AM -23.5970 -46.6120 231° Southwest 313 360 12,000 2,133 Climbing FlightAware ADS-B
Thu 06:33:43 AM -23.6450 -46.6720 229° Southwest 328 377 14,000 2,824 Climbing FlightAware ADS-B
Thu 06:34:23 AM -23.6910 -46.7160 221° Southwest 320 368 16,000 2,625 Climbing FlightAware ADS-B
Thu 06:35:03 AM -23.7320 -46.7540 220° Southwest 321 369 17,500 2,133 Climbing FlightAware ADS-B
Thu 06:35:53 AM -23.7850 -46.8060 222° Southwest 327 376 19,200 1,553 Climbing FlightAware ADS-B
Thu 06:36:28 AM -23.8270 -46.8470 222° Southwest 354 407 19,700 1,650 Climbing FlightAware ADS-B
Thu 06:37:13 AM -23.8830 -46.9010 221° Southwest 352 405 21,400 1,933 Climbing FlightAware ADS-B
Thu 06:37:58 AM -23.9360 -46.9520 221° Southwest 357 411 22,600 2,965 Climbing FlightAware ADS-B
Thu 06:38:38 AM -23.9850 -47.0000 222° Southwest 306 352 25,600 2,965 Climbing FlightAware ADS-B
Thu 06:39:23 AM -24.0290 -47.0420 221° Southwest 303 349 26,800 1,425 Climbing FlightAware ADS-B
Thu 06:39:58 AM -24.0660 -47.0790 222° Southwest 308 354 27,500 1,120 Climbing FlightAware ADS-B
Thu 06:40:38 AM -24.1120 -47.1230 221° Southwest 317 365 28,200 867 Climbing FlightAware ADS-B
Thu 06:41:28 AM -24.1680 -47.1790 222° Southwest 334 384 28,800 565 Climbing FlightAware ADS-B
Thu 06:42:03 AM -24.2070 -47.2160 221° Southwest 349 402 29,000 353 Climbing FlightAware ADS-B
Thu 06:42:53 AM -24.2650 -47.2730 222° Southwest 369 425 29,300 565 Climbing FlightAware ADS-B
Thu 06:43:28 AM -24.3180 -47.3240 221° Southwest 378 435 29,800 800 Climbing FlightAware ADS-B
Thu 06:44:08 AM -24.3740 -47.3790 222° Southwest 385 443 30,300 918 Climbing FlightAware ADS-B
Thu 06:44:53 AM -24.4280 -47.4310 221° Southwest 382 440 31,100 1,200 Climbing FlightAware ADS-B
Thu 06:45:38 AM -24.4890 -47.4920 222° Southwest 378 435 32,100 1,133 Climbing FlightAware ADS-B
Thu 06:46:23 AM -24.5430 -47.5450 222° Southwest 377 434 32,800 1,120 Climbing FlightAware ADS-B
Thu 06:46:53 AM -24.5860 -47.5870 222° Southwest 376 433 33,500 847 Climbing FlightAware ADS-B
Thu 06:47:48 AM -24.6560 -47.6550 221° Southwest 366 421 34,000 316 Climbing FlightAware ADS-B
Thu 06:48:28 AM -24.7090 -47.7080 222° Southwest 368 423 34,000  Level FlightAware ADS-B
Thu 06:48:58 AM -24.7460 -47.7440 221° Southwest 370 426 34,000  Level FlightAware ADS-B
Thu 06:49:48 AM -24.8090 -47.8070 222° Southwest 371 427 34,000  Level FlightAware ADS-B
Thu 06:50:33 AM -24.8670 -47.8640 222° Southwest 372 428 34,000  Level FlightAware ADS-B
Thu 06:51:08 AM -24.9110 -47.9080 222° Southwest 373 429 34,000  Level FlightAware ADS-B
Thu 06:51:58 AM -24.9710 -47.9680 222° Southwest 371 427 34,000  Level FlightAware ADS-B
Thu 06:52:38 AM -25.0250 -48.0210 222° Southwest 371 427 34,000  Level FlightAware ADS-B
Thu 06:53:23 AM -25.0790 -48.0750 222° Southwest 371 427 34,000  Level FlightAware ADS-B
Thu 06:54:03 AM -25.1330 -48.1280 222° Southwest 370 426 34,000  Level FlightAware ADS-B
Thu 06:54:43 AM -25.1850 -48.1800 222° Southwest 369 425 34,000  Level FlightAware ADS-B
Thu 06:55:18 AM -25.2290 -48.2240 222° Southwest 369 425 34,000  Level FlightAware ADS-B
Thu 06:56:08 AM -25.2930 -48.2880 222° Southwest 369 425 34,000  Level FlightAware ADS-B
Thu 06:56:53 AM -25.3520 -48.3470 222° Southwest 368 423 34,000  Level FlightAware ADS-B
Thu 06:57:28 AM -25.3960 -48.3910 222° Southwest 368 423 34,000  Level FlightAware ADS-B
Thu 06:58:28 AM -25.4700 -48.4650 222° Southwest 368 423 34,000 343 Level FlightAware ADS-B
Thu 06:59:13 AM -25.5240 -48.5180 222° Southwest 368 423 34,600 988 Climbing FlightAware ADS-B
Thu 06:59:53 AM -25.5770 -48.5640 218° Southwest 365 420 35,400 1,050 Climbing FlightAware ADS-B
Thu 07:00:33 AM -25.6320 -48.6120 218° Southwest 354 407 36,000 424 Climbing FlightAware ADS-B
Thu 07:01:18 AM -25.7000 -48.6730 219° Southwest 351 404 36,000  Level FlightAware ADS-B
Thu 07:01:58 AM -25.7500 -48.7170 218° Southwest 354 407 36,000  Level FlightAware ADS-B
Thu 07:02:38 AM -25.8020 -48.7630 219° Southwest 354 407 36,000  Level FlightAware ADS-B
Thu 07:03:18 AM -25.8520 -48.8090 220° Southwest 354 407 36,000  Level FlightAware ADS-B
Thu 07:04:03 AM -25.9090 -48.8590 218° Southwest 354 407 36,000  Level FlightAware ADS-B
Thu 07:04:48 AM -25.9680 -48.9120 219° Southwest 356 410 36,000  Level FlightAware ADS-B
Thu 07:05:28 AM -26.0180 -48.9560 218° Southwest 357 411 36,000  Level FlightAware ADS-B
Thu 07:08:00 AM -26.2011 -49.1361 221° Southwest  Level Estimated
Thu 07:09:00 AM -26.2733 -49.2074 221° Southwest  Level Estimated
Thu 07:10:00 AM -26.3455 -49.2788 222° Southwest  Level Estimated
Thu 07:10:23 AM -26.3940 -49.2950 222° Southwest 351 404 36,000  Level FlightAware ADS-B
Thu 07:11:03 AM -26.4440 -49.3400 219° Southwest 350 403 36,000  Level FlightAware ADS-B
Thu 07:11:48 AM -26.5000 -49.3910 219° Southwest 350 403 36,000  Level FlightAware ADS-B
Thu 07:12:28 AM -26.5520 -49.4380 219° Southwest 353 406 36,000  Level FlightAware ADS-B
Thu 07:13:13 AM -26.6100 -49.4910 219° Southwest 354 407 36,000  Level FlightAware ADS-B
Thu 07:13:43 AM -26.6440 -49.5220 219° Southwest 355 409 36,000  Level FlightAware ADS-B
Thu 07:14:33 AM -26.7110 -49.5830 219° Southwest 354 407 36,000  Level FlightAware ADS-B
Thu 07:15:18 AM -26.7650 -49.6320 219° Southwest 355 409 36,000  Level FlightAware ADS-B
Thu 07:15:58 AM -26.8160 -49.6790 219° Southwest 355 409 36,000  Level FlightAware ADS-B
Thu 07:16:43 AM -26.8750 -49.7320 219° Southwest 355 409 36,000  Level FlightAware ADS-B
Thu 07:17:23 AM -26.9240 -49.7770 219° Southwest 355 409 36,000  Level FlightAware ADS-B
Thu 07:18:03 AM -26.9770 -49.8260 219° Southwest 355 409 36,000  Level FlightAware ADS-B
Thu 07:18:48 AM -27.0310 -49.8760 220° Southwest 355 409 36,000  Level FlightAware ADS-B
Thu 07:19:28 AM -27.0830 -49.9240 219° Southwest 356 410 36,000  Level FlightAware ADS-B
Thu 07:20:13 AM -27.1430 -49.9780 219° Southwest 356 410 36,000  Level FlightAware ADS-B
Thu 07:20:48 AM -27.1830 -50.0150 219° Southwest 356 410 36,000  Level FlightAware ADS-B
Thu 07:21:38 AM -27.2490 -50.0760 219° Southwest 355 409 36,000  Level FlightAware ADS-B
Thu 07:22:18 AM -27.3020 -50.1250 219° Southwest 355 409 36,000  Level FlightAware ADS-B
Thu 07:22:58 AM -27.3540 -50.1730 219° Southwest 357 411 36,000  Level FlightAware ADS-B
Thu 07:23:43 AM -27.4110 -50.2260 220° Southwest 359 413 36,000  Level FlightAware ADS-B
Thu 07:24:23 AM -27.4620 -50.2730 219° Southwest 360 414 36,000  Level FlightAware ADS-B
Thu 07:25:08 AM -27.5210 -50.3280 220° Southwest 362 417 36,000  Level FlightAware ADS-B
Thu 07:26:03 AM -27.5910 -50.3930 219° Southwest 362 417 36,000  Level FlightAware ADS-B
Thu 07:26:43 AM -27.6430 -50.4410 219° Southwest 363 418 36,000  Level FlightAware ADS-B
Thu 07:27:23 AM -27.6960 -50.4910 220° Southwest 363 418 36,000  Level FlightAware ADS-B
Thu 07:28:03 AM -27.7470 -50.5380 219° Southwest 365 420 36,000  Level FlightAware ADS-B
Thu 07:28:48 AM -27.8060 -50.5930 220° Southwest 365 420 36,000  Level FlightAware ADS-B
Thu 07:29:33 AM -27.8640 -50.6480 220° Southwest 366 421 36,000  Level FlightAware ADS-B
Thu 07:30:13 AM -27.9160 -50.6970 220° Southwest 367 422 36,000  Level FlightAware ADS-B
Thu 07:30:53 AM -27.9640 -50.7420 220° Southwest 367 422 36,000  Level FlightAware ADS-B
Thu 07:31:38 AM -28.0290 -50.8030 220° Southwest 367 422 36,000  Level FlightAware ADS-B
Thu 07:32:18 AM -28.0820 -50.8520 219° Southwest 367 422 36,000  Level FlightAware ADS-B
Thu 07:33:03 AM -28.1390 -50.9060 220° Southwest 367 422 36,000  Level FlightAware ADS-B
Thu 07:33:43 AM -28.1900 -50.9540 220° Southwest 369 425 36,000  Level FlightAware ADS-B
Thu 07:34:23 AM -28.2440 -51.0050 220° Southwest 369 425 36,000  Level FlightAware ADS-B
Thu 07:35:08 AM -28.3040 -51.0620 220° Southwest 371 427 36,000  Level FlightAware ADS-B
Thu 07:35:48 AM -28.3560 -51.1110 220° Southwest 372 428 36,000  Level FlightAware ADS-B
Thu 07:36:28 AM -28.4100 -51.1620 220° Southwest 372 428 36,000  Level FlightAware ADS-B
Thu 07:37:13 AM -28.4700 -51.2190 220° Southwest 371 427 36,000  Level FlightAware ADS-B
Thu 07:37:53 AM -28.5230 -51.2700 220° Southwest 371 427 36,000  Level FlightAware ADS-B
Thu 07:38:38 AM -28.5800 -51.3240 220° Southwest 372 428 36,000  Level FlightAware ADS-B
Thu 07:39:18 AM -28.6330 -51.3750 220° Southwest 372 428 36,000  Level FlightAware ADS-B
Thu 07:40:03 AM -28.6950 -51.4330 219° Southwest 373 429 36,000  Level FlightAware ADS-B
Thu 07:40:43 AM -28.7470 -51.4840 221° Southwest 374 430 36,000  Level FlightAware ADS-B
Thu 07:41:28 AM -28.8060 -51.5410 220° Southwest 374 430 36,000  Level FlightAware ADS-B
Thu 07:42:08 AM -28.8580 -51.5900 220° Southwest 374 430 36,000  Level FlightAware ADS-B
Thu 07:42:48 AM -28.9110 -51.6420 221° Southwest 373 429 36,000  Level FlightAware ADS-B
Thu 07:43:33 AM -28.9720 -51.7000 220° Southwest 373 429 36,000  Level FlightAware ADS-B
Thu 07:44:13 AM -29.0240 -51.7510 221° Southwest 375 432 36,000  Level FlightAware ADS-B
Thu 07:44:58 AM -29.0840 -51.8080 220° Southwest 376 433 36,000  Level FlightAware ADS-B
Thu 07:45:38 AM -29.1360 -51.8590 221° Southwest 378 435 36,000  Level FlightAware ADS-B
Thu 07:46:18 AM -29.1910 -51.9110 220° Southwest 378 435 36,000  Level FlightAware ADS-B
Thu 07:47:03 AM -29.2510 -51.9700 221° Southwest 377 434 36,000  Level FlightAware ADS-B
Thu 07:47:43 AM -29.3050 -52.0220 220° Southwest 375 432 36,000  Level FlightAware ADS-B
Thu 07:48:23 AM -29.3580 -52.0730 220° Southwest 373 429 36,000  Level FlightAware ADS-B
Thu 07:49:08 AM -29.4150 -52.1290 221° Southwest 371 427 36,000 -71 Level FlightAware ADS-B
Thu 07:49:48 AM -29.4670 -52.1800 220° Southwest 373 429 35,900  Descending FlightAware ADS-B
Thu 07:50:33 AM -29.5280 -52.2400 221° Southwest 373 429 36,000 71 Climbing FlightAware ADS-B
Thu 07:51:13 AM -29.5800 -52.2910 220° Southwest 375 432 36,000  Level FlightAware ADS-B
Thu 07:51:53 AM -29.6330 -52.3420 220° Southwest 377 434 36,000  Level FlightAware ADS-B
Thu 07:52:28 AM -29.6770 -52.3860 221° Southwest 378 435 36,000  Level FlightAware ADS-B
Thu 07:53:18 AM -29.7430 -52.4510 221° Southwest 379 436 36,000  Level FlightAware ADS-B
Thu 07:53:58 AM -29.7970 -52.5040 220° Southwest 380 437 36,000  Level FlightAware ADS-B
Thu 07:54:43 AM -29.8560 -52.5620 220° Southwest 380 437 36,000  Level FlightAware ADS-B
Thu 07:55:23 AM -29.9110 -52.6160 220° Southwest 380 437 36,000  Level FlightAware ADS-B
Thu 07:56:08 AM -29.9700 -52.6750 221° Southwest 382 440 36,000  Level FlightAware ADS-B
Thu 07:56:48 AM -30.0200 -52.7240 220° Southwest 384 442 36,000  Level FlightAware ADS-B
Thu 07:57:33 AM -30.0850 -52.7880 220° Southwest 384 442 36,000  Level FlightAware ADS-B
Thu 07:58:13 AM -30.1370 -52.8410 221° Southwest 383 441 36,000  Level FlightAware ADS-B
Thu 07:58:53 AM -30.1900 -52.8930 220° Southwest 383 441 36,000  Level FlightAware ADS-B
Thu 07:59:38 AM -30.2520 -52.9550 221° Southwest 384 442 36,000  Level FlightAware ADS-B
Thu 08:00:18 AM -30.3060 -53.0090 221° Southwest 387 445 36,000  Level FlightAware ADS-B
Thu 08:01:03 AM -30.3680 -53.0710 221° Southwest 392 451 36,000  Level FlightAware ADS-B
Thu 08:01:43 AM -30.4240 -53.1260 220° Southwest 393 452 36,000  Level FlightAware ADS-B
Thu 08:02:23 AM -30.4760 -53.1790 221° Southwest 393 452 36,000  Level FlightAware ADS-B
Thu 08:03:08 AM -30.5410 -53.2440 221° Southwest 392 451 36,000  Level FlightAware ADS-B
Thu 08:03:48 AM -30.5960 -53.2990 221° Southwest 391 450 36,000  Level FlightAware ADS-B
Thu 08:04:28 AM -30.6490 -53.3530 221° Southwest 391 450 36,000  Level FlightAware ADS-B
Thu 08:05:13 AM -30.7120 -53.4160 221° Southwest 389 448 36,000  Level FlightAware ADS-B
Thu 08:05:53 AM -30.7630 -53.4680 221° Southwest 390 449 36,000  Level FlightAware ADS-B
Thu 08:06:38 AM -30.8270 -53.5320 221° Southwest 390 449 36,000  Level FlightAware ADS-B
Thu 08:07:18 AM -30.8790 -53.5860 222° Southwest 389 448 36,000  Level FlightAware ADS-B
Thu 08:07:58 AM -30.9320 -53.6400 221° Southwest 389 448 36,000  Level FlightAware ADS-B
Thu 08:08:43 AM -30.9960 -53.7050 221° Southwest 388 447 36,000  Level FlightAware ADS-B
Thu 08:09:23 AM -31.0480 -53.7580 221° Southwest 388 447 36,000  Level FlightAware ADS-B
Thu 08:10:03 AM -31.1040 -53.8150 221° Southwest 389 448 36,000  Level FlightAware ADS-B
Thu 08:10:48 AM -31.1650 -53.8770 221° Southwest 389 448 36,000  Level FlightAware ADS-B
Thu 08:11:28 AM -31.2150 -53.9280 221° Southwest 391 450 36,000  Level FlightAware ADS-B
Thu 08:12:03 AM -31.2680 -53.9830 222° Southwest 391 450 36,000  Level FlightAware ADS-B
Thu 08:12:53 AM -31.3310 -54.0600 226° Southwest 392 451 36,000  Level FlightAware ADS-B
Thu 08:13:28 AM -31.3720 -54.1110 227° Southwest 393 452 36,000  Level FlightAware ADS-B
Thu 08:14:13 AM -31.4230 -54.1740 227° Southwest 393 452 36,000  Level FlightAware ADS-B
Thu 08:15:13 AM -31.5040 -54.2720 226° Southwest 396 456 36,000  Level FlightAware ADS-B
Thu 08:15:48 AM -31.5430 -54.3190 226° Southwest 396 456 36,000  Level FlightAware ADS-B
Thu 08:16:38 AM -31.6120 -54.4030 226° Southwest 399 459 36,000  Level FlightAware ADS-B
Thu 08:17:18 AM -31.6550 -54.4560 226° Southwest 399 459 36,000  Level FlightAware ADS-B
Thu 08:17:58 AM -31.6990 -54.5090 226° Southwest 399 459 36,000  Level FlightAware ADS-B
Thu 08:18:38 AM -31.7420 -54.5620 226° Southwest 399 459 36,000  Level FlightAware ADS-B
Thu 08:19:28 AM -31.7970 -54.6280 226° Southwest 399 459 36,000  Level FlightAware ADS-B
Thu 08:20:08 AM -31.8400 -54.6810 226° Southwest 399 459 36,000  Level FlightAware ADS-B
Thu 08:20:48 AM -31.8840 -54.7340 226° Southwest 399 459 36,000  Level FlightAware ADS-B
Thu 08:21:28 AM -31.9280 -54.7880 226° Southwest 399 459 36,000  Level FlightAware ADS-B
Thu 08:22:08 AM -31.9710 -54.8410 226° Southwest 399 459 36,000  Level FlightAware ADS-B
Thu 08:22:58 AM -32.0260 -54.9070 225° Southwest 399 459 36,000  Level FlightAware ADS-B
Thu 08:23:38 AM -32.0690 -54.9610 227° Southwest 399 459 36,000  Level FlightAware ADS-B
Thu 08:24:18 AM -32.1130 -55.0140 226° Southwest 399 459 36,000  Level FlightAware ADS-B
Thu 08:24:58 AM -32.1560 -55.0670 226° Southwest 399 459 36,000  Level FlightAware ADS-B
Thu 08:25:38 AM -32.2000 -55.1210 226° Southwest 399 459 36,000  Level FlightAware ADS-B
Thu 08:28:00 AM -32.3511 -55.3233 228° Southwest  Level Estimated
Thu 08:28:18 AM -32.4430 -55.5950 228° Southwest 406 467 36,000  Level FlightAware ADS-B
Thu 08:29:13 AM -32.5060 -55.6850 230° Southwest 406 467 36,000  Level FlightAware ADS-B
Thu 08:29:53 AM -32.5470 -55.7430 230° Southwest 406 467 36,000  Level FlightAware ADS-B
Thu 08:30:33 AM -32.5880 -55.8010 230° Southwest 406 467 36,000  Level FlightAware ADS-B
Thu 08:31:23 AM -32.6580 -55.9080 232° Southwest 409 471 36,000  Level FlightAware ADS-B
Thu 08:32:18 AM -32.7230 -56.0040 231° Southwest 411 473 36,000  Level FlightAware ADS-B
Thu 08:32:58 AM -32.7690 -56.0720 231° Southwest 411 473 36,000  Level FlightAware ADS-B
Thu 08:33:48 AM -32.8320 -56.1640 231° Southwest 411 473 36,000  Level FlightAware ADS-B
Thu 08:34:38 AM -32.8900 -56.2500 231° Southwest 411 473 36,000  Level FlightAware ADS-B
Thu 08:35:23 AM -32.9120 -56.2830 232° Southwest 412 474 36,000  Level FlightAware ADS-B
Thu 08:36:28 AM -33.0270 -56.4550 231° Southwest 413 475 36,000  Level FlightAware ADS-B
Thu 08:37:13 AM -33.0830 -56.5370 231° Southwest 415 478 36,000  Level FlightAware ADS-B
Thu 08:37:53 AM -33.1300 -56.6080 232° Southwest 415 478 36,000  Level FlightAware ADS-B
Thu 08:38:33 AM -33.1780 -56.6790 231° Southwest 417 480 36,000  Level FlightAware ADS-B
Thu 08:39:18 AM -33.2340 -56.7630 231° Southwest 417 480 36,000  Level FlightAware ADS-B
Thu 08:39:58 AM -33.2820 -56.8350 231° Southwest 416 479 36,000 -150 Level FlightAware ADS-B
Thu 08:40:38 AM -33.3270 -56.9040 232° Southwest 417 480 35,800 -776 Descending FlightAware ADS-B
Thu 08:41:23 AM -33.3820 -56.9860 231° Southwest 415 478 34,900 -1,482 Descending FlightAware ADS-B
Thu 08:42:03 AM -33.4290 -57.0560 231° Southwest 408 470 33,700 -1,950 Descending FlightAware ADS-B
Thu 08:42:43 AM -33.4770 -57.1300 232° Southwest 405 466 32,300 -2,047 Descending FlightAware ADS-B
Thu 08:43:28 AM -33.5270 -57.2060 232° Southwest 400 460 30,800 -2,067 Descending FlightAware ADS-B
Thu 08:44:13 AM -33.5800 -57.2860 231° Southwest 395 455 29,200 -2,047 Descending FlightAware ADS-B
Thu 08:44:53 AM -33.6250 -57.3550 232° Southwest 391 450 27,900 -2,025 Descending FlightAware ADS-B
Thu 08:45:33 AM -33.6700 -57.4230 231° Southwest 387 445 26,500 -1,976 Descending FlightAware ADS-B
Thu 08:46:18 AM -33.7160 -57.4940 232° Southwest 384 442 25,100 -2,047 Descending FlightAware ADS-B
Thu 08:46:58 AM -33.7620 -57.5650 232° Southwest 379 436 23,600 -2,047 Descending FlightAware ADS-B
Thu 08:47:43 AM -33.8100 -57.6370 231° Southwest 376 433 22,200 -1,950 Descending FlightAware ADS-B
Thu 08:48:18 AM -33.8480 -57.6960 232° Southwest 371 427 21,000 -1,976 Descending FlightAware ADS-B
Thu 08:49:08 AM -33.8980 -57.7740 232° Southwest 366 421 19,400 -2,000 Descending FlightAware ADS-B
Thu 08:49:48 AM -33.9420 -57.8410 232° Southwest 361 415 18,000 -1,875 Descending FlightAware ADS-B
Thu 08:50:28 AM -33.9800 -57.9010 233° Southwest 352 405 16,900 -1,835 Descending FlightAware ADS-B
Thu 08:51:13 AM -34.0260 -57.9720 232° Southwest 342 394 15,400 -1,765 Descending FlightAware ADS-B
Thu 08:51:53 AM -34.0640 -58.0310 232° Southwest 330 380 14,400 -1,500 Descending FlightAware ADS-B
Thu 08:52:33 AM -34.1010 -58.0880 232° Southwest 319 367 13,400 -1,482 Descending FlightAware ADS-B
Thu 08:53:18 AM -34.1400 -58.1500 233° Southwest 311 358 12,300 -1,482 Descending FlightAware ADS-B
Thu 08:53:58 AM -34.1750 -58.2040 232° Southwest 303 349 11,300 -1,527 Descending FlightAware ADS-B
Thu 08:54:13 AM -34.1840 -58.2260 244° Southwest 303 349 10,900 -1,527 Descending FlightAware ADS-B
Thu 08:54:53 AM -34.1920 -58.2940 262° West 296 341 9,900 -1,418 Descending FlightAware ADS-B
Thu 08:55:08 AM -34.1950 -58.3160 261° West 294 338 9,600 -1,200 Descending FlightAware ADS-B
Thu 08:55:33 AM -34.2040 -58.3570 255° West 286 329 9,100 -655 Descending FlightAware ADS-B
Thu 08:56:03 AM -34.2180 -58.4020 249° West 284 327 9,000 -109 Descending FlightAware ADS-B
Thu 08:56:28 AM -34.2280 -58.4370 251° West 285 328 9,000  Level FlightAware ADS-B
Thu 08:56:48 AM -34.2380 -58.4680 249° West 284 327 9,000 -120 Level FlightAware ADS-B
Thu 08:57:18 AM -34.2510 -58.5120 250° West 276 318 8,900 -480 Descending FlightAware ADS-B
Thu 08:57:38 AM -34.2590 -58.5400 251° West 267 307 8,600 -873 Descending FlightAware ADS-B
Thu 08:58:13 AM -34.2740 -58.5900 250° West 252 290 8,100 -960 Descending FlightAware ADS-B
Thu 08:58:28 AM -34.2790 -58.6080 251° West 251 289 7,800 -1,200 Descending FlightAware ADS-B
Thu 08:58:48 AM -34.2870 -58.6340 250° West 249 287 7,400 -764 Descending FlightAware ADS-B
Thu 08:59:23 AM -34.3000 -58.6800 251° West 228 262 7,100 -655 Descending FlightAware ADS-B
Thu 08:59:43 AM -34.3070 -58.7030 250° West 215 247 6,800 -1,200 Descending FlightAware ADS-B
Thu 09:00:03 AM -34.3150 -58.7240 245° Southwest 213 245 6,300 -1,371 Descending FlightAware ADS-B
Thu 09:00:18 AM -34.3260 -58.7330 214° Southwest 212 244 6,000 -1,500 Descending FlightAware ADS-B
Thu 09:00:23 AM -34.3320 -58.7340 188° South 209 241 5,800 -1,680 Descending FlightAware ADS-B
Thu 09:00:43 AM -34.3490 -58.7270 161° South 197 227 5,300 -2,057 Descending FlightAware ADS-B
Thu 09:00:58 AM -34.3580 -58.7160 135° Southeast 209 241 4,600 -2,000 Descending FlightAware ADS-B
Thu 09:01:13 AM -34.3690 -58.7020 134° Southeast 209 241 4,300 -800 Descending FlightAware ADS-B
Thu 09:01:43 AM -34.3900 -58.6800 139° Southeast 194 223 4,000 -655 Descending FlightAware ADS-B
Thu 09:02:08 AM -34.4020 -58.6600 126° Southeast 178 205 3,700 -655 Descending FlightAware ADS-B
Thu 09:02:38 AM -34.4160 -58.6360 125° Southeast 162 186 3,400 -873 Descending FlightAware ADS-B
Thu 09:03:03 AM -34.4270 -58.6180 127° Southeast 171 197 2,900 -1,091 Descending FlightAware ADS-B
Thu 09:03:33 AM -34.4430 -58.5950 130° Southeast 170 196 2,400 -600 Descending FlightAware ADS-B
Thu 09:04:03 AM -34.4590 -58.5760 136° Southeast 158 182 2,300 -109 Descending FlightAware ADS-B
Thu 09:04:28 AM -34.4730 -58.5630 143° Southeast 157 181 2,300 -218 Level FlightAware ADS-B
Thu 09:04:58 AM -34.4880 -58.5430 132° Southeast 159 183 2,100 -600 Descending FlightAware ADS-B
Thu 09:05:28 AM -34.5000 -58.5220 125° Southeast 154 177 1,700 -764 Descending FlightAware ADS-B
Thu 09:05:53 AM -34.5100 -58.5040 124° Southeast 145 167 1,400 -764 Descending FlightAware ADS-B
Thu 09:06:23 AM -34.5210 -58.4850 125° Southeast 138 159 1,000 -764 Descending FlightAware ADS-B
Thu 09:06:48 AM -34.5300 -58.4690 124° Southeast 138 159 700 -764 Descending FlightAware ADS-B
Thu 09:07:18 AM -34.5410 -58.4490 124° Southeast 137 158 300 -514 Descending FlightAware ADS-B
Thu 09:07:58 AM -34.5540 -58.4250 123° Southeast 135 155 100 -300 Descending FlightAware ADS-B

Login

Don't have an account? Register now (free) for customized features, flight alerts, and more!